createdAt,value
2019-03-23T00:00:29.022Z,37.87
2019-03-23T00:02:56.758Z,37.00
2019-03-23T00:05:24.504Z,35.83
2019-03-23T00:07:52.262Z,38.03
2019-03-23T00:10:19.981Z,37.30
2019-03-23T00:12:47.722Z,36.07
2019-03-23T00:15:15.535Z,35.97
2019-03-23T00:17:43.323Z,35.90
2019-03-23T00:20:11.037Z,33.63
2019-03-23T00:22:38.712Z,33.80
2019-03-23T00:25:06.569Z,32.30
2019-03-23T00:27:34.244Z,37.03
2019-03-23T00:30:01.926Z,37.83
2019-03-23T00:32:29.700Z,35.27
2019-03-23T00:34:57.369Z,34.07
2019-03-23T00:37:25.045Z,34.37
2019-03-23T00:39:52.788Z,39.17
2019-03-23T00:42:20.477Z,39.60
2019-03-23T00:44:48.170Z,39.20
2019-03-23T00:47:15.923Z,31.67
2019-03-23T00:49:43.596Z,37.17
2019-03-23T00:52:11.332Z,38.07
2019-03-23T00:54:39.033Z,46.00
2019-03-23T00:57:06.804Z,45.07
2019-03-23T00:59:34.578Z,44.97
2019-03-23T01:02:02.373Z,42.73
2019-03-23T01:04:30.109Z,42.83
2019-03-23T01:06:57.782Z,42.43
2019-03-23T01:09:25.475Z,40.97
2019-03-23T01:11:53.208Z,36.07
2019-03-23T01:14:20.840Z,32.77
2019-03-23T01:16:48.556Z,36.10
2019-03-23T01:19:16.280Z,26.00
2019-03-23T01:21:43.996Z,31.00
2019-03-23T01:24:11.675Z,28.23
2019-03-23T01:26:39.364Z,24.40
2019-03-23T01:29:07.108Z,24.03
2019-03-23T01:31:34.787Z,25.30
2019-03-23T01:34:02.428Z,25.13
2019-03-23T01:36:30.324Z,25.37
2019-03-23T01:38:57.997Z,25.70
2019-03-23T01:41:25.726Z,29.43
2019-03-23T01:43:53.602Z,30.63
2019-03-23T01:46:21.347Z,29.60
2019-03-23T01:48:49.055Z,30.47
2019-03-23T01:51:16.793Z,25.10
2019-03-23T01:53:44.562Z,27.77
2019-03-23T01:56:12.307Z,25.07
2019-03-23T01:58:40.094Z,26.00
2019-03-23T02:01:07.977Z,28.07
2019-03-23T02:03:35.675Z,24.83
2019-03-23T02:06:03.394Z,25.70
2019-03-23T02:08:31.294Z,25.90
2019-03-23T02:10:59.134Z,25.33
2019-03-23T02:13:27.012Z,24.10
2019-03-23T02:15:54.872Z,25.90
2019-03-23T02:18:22.507Z,25.93
2019-03-23T02:20:50.314Z,25.80
2019-03-23T02:23:18.062Z,26.27
2019-03-23T02:25:45.703Z,25.77
2019-03-23T02:28:13.497Z,26.53
2019-03-23T02:30:41.243Z,26.77
2019-03-23T02:33:09.125Z,26.17
2019-03-23T02:35:36.787Z,26.80
2019-03-23T02:38:05.369Z,27.27
2019-03-23T02:40:33.164Z,26.50
2019-03-23T02:43:00.917Z,27.33
2019-03-23T02:45:30.301Z,26.80
2019-03-23T02:47:58.178Z,29.27
2019-03-23T02:50:25.940Z,29.13
2019-03-23T02:52:53.732Z,28.47
2019-03-23T02:55:21.602Z,28.00
2019-03-23T02:57:49.339Z,28.67
2019-03-23T03:00:18.137Z,26.27
2019-03-23T03:02:46.003Z,27.60
2019-03-23T03:05:13.883Z,27.53
2019-03-23T03:07:43.522Z,28.17
2019-03-23T03:10:11.761Z,29.00
2019-03-23T03:12:39.476Z,30.00
2019-03-23T03:15:07.596Z,30.13
2019-03-23T03:17:35.344Z,30.67
2019-03-23T03:20:04.455Z,31.90
2019-03-23T03:22:32.330Z,30.80
2019-03-23T03:25:00.372Z,31.50
2019-03-23T03:27:28.269Z,30.97
2019-03-23T03:29:56.049Z,31.97
2019-03-23T03:32:23.797Z,30.47
2019-03-23T03:34:51.450Z,29.53
2019-03-23T03:37:19.228Z,29.03
2019-03-23T03:39:46.940Z,30.03
2019-03-23T03:42:14.772Z,29.53
2019-03-23T03:44:42.521Z,26.50
2019-03-23T03:47:10.286Z,24.77
2019-03-23T03:49:38.073Z,25.37
2019-03-23T03:52:05.817Z,26.07
2019-03-23T03:54:33.490Z,25.93
2019-03-23T03:57:01.229Z,24.63
2019-03-23T03:59:28.859Z,24.37
2019-03-23T04:01:56.548Z,23.23
2019-03-23T04:04:24.554Z,24.03
2019-03-23T04:06:52.301Z,23.37
2019-03-23T04:09:19.980Z,24.10
2019-03-23T04:11:47.705Z,24.13
2019-03-23T04:14:15.384Z,25.07
2019-03-23T04:16:43.149Z,23.97
2019-03-23T04:19:10.873Z,23.37
2019-03-23T04:21:38.609Z,24.20
2019-03-23T04:24:06.312Z,23.87
2019-03-23T04:26:34.032Z,23.93
2019-03-23T04:29:01.903Z,24.30
2019-03-23T04:31:29.697Z,23.40
2019-03-23T04:33:57.357Z,23.90
2019-03-23T04:36:24.997Z,24.07
2019-03-23T04:38:52.705Z,26.83
2019-03-23T04:41:20.376Z,26.07
2019-03-23T04:43:48.089Z,32.40
2019-03-23T04:46:15.772Z,34.00
2019-03-23T04:48:44.668Z,28.90
2019-03-23T04:51:12.380Z,36.60
2019-03-23T04:53:40.121Z,33.70
2019-03-23T04:56:07.800Z,38.27
2019-03-23T04:58:35.440Z,44.57
2019-03-23T05:01:04.435Z,35.73
2019-03-23T05:03:32.274Z,32.77
2019-03-23T05:06:00.013Z,30.70
2019-03-23T05:08:33.285Z,28.17
2019-03-23T05:10:57.017Z,25.13
2019-03-23T05:13:24.757Z,29.50
2019-03-23T05:15:52.432Z,28.53
2019-03-23T05:18:20.189Z,26.80
2019-03-23T05:20:47.931Z,25.60
2019-03-23T05:23:15.620Z,26.77
2019-03-23T05:25:43.257Z,26.40
2019-03-23T05:28:11.020Z,26.83
2019-03-23T05:30:38.740Z,26.57
2019-03-23T05:33:06.455Z,29.60
2019-03-23T05:35:34.083Z,28.77
2019-03-23T05:38:01.796Z,28.80
2019-03-23T05:40:29.448Z,26.30
2019-03-23T05:42:57.182Z,24.40
2019-03-23T05:45:24.922Z,26.23
2019-03-23T05:47:52.608Z,25.43
2019-03-23T05:50:20.342Z,24.17
2019-03-23T05:52:47.964Z,22.87
2019-03-23T05:55:15.749Z,22.10
2019-03-23T05:57:43.462Z,24.23
2019-03-23T06:00:12.928Z,21.63
2019-03-23T06:02:40.641Z,21.20
2019-03-23T06:05:08.331Z,20.97
2019-03-23T06:07:36.034Z,20.93
2019-03-23T06:10:04.804Z,20.37
2019-03-23T06:12:32.485Z,19.47
2019-03-23T06:15:00.452Z,24.50
2019-03-23T06:17:28.301Z,23.70
2019-03-23T06:19:55.943Z,20.97
2019-03-23T06:22:23.678Z,20.70
2019-03-23T06:24:51.408Z,22.77
2019-03-23T06:27:19.166Z,20.70
2019-03-23T06:29:46.816Z,20.63
2019-03-23T06:32:14.704Z,21.03
2019-03-23T06:34:42.451Z,19.70
2019-03-23T06:37:10.241Z,19.97
2019-03-23T06:39:37.941Z,19.83
2019-03-23T06:42:05.767Z,19.23
2019-03-23T06:44:33.740Z,21.00
2019-03-23T06:47:01.497Z,19.10
2019-03-23T06:49:29.281Z,20.40
2019-03-23T06:51:57.134Z,19.83
2019-03-23T06:54:25.008Z,21.27
2019-03-23T06:56:52.772Z,21.10
2019-03-23T06:59:20.549Z,18.87
2019-03-23T07:01:48.402Z,18.50
2019-03-23T07:04:16.276Z,17.50
2019-03-23T07:06:44.045Z,18.63
2019-03-23T07:09:16.078Z,17.97
2019-03-23T07:11:41.191Z,18.80
2019-03-23T07:14:08.889Z,18.77
2019-03-23T07:16:36.636Z,17.03
2019-03-23T07:19:04.509Z,16.20
2019-03-23T07:21:32.386Z,17.20
2019-03-23T07:24:00.138Z,17.43
2019-03-23T07:26:28.011Z,15.13
2019-03-23T07:28:55.777Z,16.20
2019-03-23T07:31:23.532Z,17.13
2019-03-23T07:33:51.288Z,15.47
2019-03-23T07:36:18.936Z,14.87
2019-03-23T07:38:47.231Z,16.70
2019-03-23T07:41:14.928Z,14.50
2019-03-23T07:43:42.573Z,15.17
2019-03-23T07:46:10.443Z,16.13
2019-03-23T07:48:38.319Z,16.07
2019-03-23T07:51:06.045Z,17.07
2019-03-23T07:53:33.857Z,16.87
2019-03-23T07:56:01.591Z,16.97
2019-03-23T07:58:29.288Z,19.30
2019-03-23T08:00:57.049Z,19.20
2019-03-23T08:03:24.904Z,20.80
2019-03-23T08:05:52.772Z,19.23
2019-03-23T08:08:22.398Z,20.30
2019-03-23T08:10:50.250Z,20.53
2019-03-23T08:13:18.149Z,20.17
2019-03-23T08:15:45.867Z,20.67
2019-03-23T08:18:13.652Z,21.73
2019-03-23T08:20:41.368Z,20.80
2019-03-23T08:23:09.289Z,21.43
2019-03-23T08:25:37.045Z,21.43
2019-03-23T08:28:05.441Z,24.40
2019-03-23T08:30:33.078Z,24.00
2019-03-23T08:33:00.822Z,22.40
2019-03-23T08:35:28.571Z,23.37
2019-03-23T08:37:56.400Z,24.00
2019-03-23T08:40:24.165Z,25.57
2019-03-23T08:42:51.907Z,27.97
2019-03-23T08:45:19.676Z,25.17
2019-03-23T08:47:47.569Z,28.40
2019-03-23T08:50:15.256Z,25.67
2019-03-23T08:52:42.988Z,21.93
2019-03-23T08:55:10.644Z,22.37
2019-03-23T08:57:38.529Z,24.17
2019-03-23T09:00:06.903Z,23.00
2019-03-23T09:02:34.684Z,23.40
2019-03-23T09:05:02.296Z,22.27
2019-03-23T09:07:29.996Z,22.70
2019-03-23T09:09:59.353Z,25.93
2019-03-23T09:12:27.147Z,27.17
2019-03-23T09:14:54.929Z,25.60
2019-03-23T09:17:22.795Z,24.70
2019-03-23T09:19:50.466Z,27.40
2019-03-23T09:22:18.337Z,27.13
2019-03-23T09:24:45.981Z,26.57
2019-03-23T09:27:13.654Z,26.07
2019-03-23T09:29:41.528Z,24.23
2019-03-23T09:32:09.203Z,25.87
2019-03-23T09:34:36.952Z,20.77
2019-03-23T09:37:04.721Z,25.67
2019-03-23T09:39:32.591Z,26.67
2019-03-23T09:42:00.657Z,28.87
2019-03-23T09:44:28.531Z,23.83
2019-03-23T09:46:56.502Z,25.00
2019-03-23T09:49:24.556Z,23.00
2019-03-23T09:51:52.339Z,27.47
2019-03-23T09:54:20.090Z,26.23
2019-03-23T09:56:47.871Z,27.57
2019-03-23T09:59:15.650Z,26.20
2019-03-23T10:01:43.414Z,27.47
2019-03-23T10:04:11.280Z,27.57
2019-03-23T10:06:39.029Z,27.23
2019-03-23T10:09:06.909Z,27.30
2019-03-23T10:11:34.672Z,27.27
2019-03-23T10:14:03.181Z,27.33
2019-03-23T10:16:31.003Z,29.60
2019-03-23T10:18:58.788Z,25.80
2019-03-23T10:21:26.458Z,26.97
2019-03-23T10:23:54.687Z,28.93
2019-03-23T10:26:22.450Z,28.97
2019-03-23T10:28:50.080Z,26.87
2019-03-23T10:31:18.142Z,29.47
2019-03-23T10:33:45.897Z,30.40
2019-03-23T10:36:13.568Z,32.00
2019-03-23T10:38:41.429Z,31.13
2019-03-23T10:41:09.294Z,28.70
2019-03-23T10:43:38.990Z,31.17
2019-03-23T10:46:06.569Z,30.10
2019-03-23T10:48:34.315Z,27.17
2019-03-23T10:51:02.200Z,29.47
2019-03-23T10:53:30.948Z,28.93
2019-03-23T10:55:58.964Z,26.60
2019-03-23T10:58:26.736Z,26.83
2019-03-23T11:00:54.416Z,24.70
2019-03-23T11:03:22.262Z,48.37
2019-03-23T11:05:50.130Z,26.20
2019-03-23T11:08:17.832Z,22.80
2019-03-23T11:10:45.553Z,21.03
2019-03-23T11:13:13.328Z,22.53
2019-03-23T11:15:41.206Z,19.63
2019-03-23T11:18:08.959Z,19.70
2019-03-23T11:20:36.823Z,19.40
2019-03-23T11:23:04.581Z,22.70
2019-03-23T11:25:32.339Z,21.17
2019-03-23T11:28:00.116Z,20.13
2019-03-23T11:30:27.989Z,19.90
2019-03-23T11:32:55.664Z,21.90
2019-03-23T11:35:23.535Z,23.33
2019-03-23T11:37:51.701Z,19.23
2019-03-23T11:40:19.666Z,21.13
2019-03-23T11:42:50.212Z,19.97
2019-03-23T11:45:16.637Z,19.03
2019-03-23T11:47:44.383Z,19.13
2019-03-23T11:50:12.060Z,20.57
2019-03-23T11:52:39.820Z,19.57
2019-03-23T11:55:07.795Z,19.47
2019-03-23T11:57:35.448Z,18.90
2019-03-23T12:00:05.025Z,18.37
2019-03-23T12:02:32.943Z,18.93
2019-03-23T12:05:00.718Z,19.00
2019-03-23T12:07:28.576Z,16.57
2019-03-23T12:09:56.548Z,17.27
2019-03-23T12:12:24.519Z,18.33
2019-03-23T12:14:52.291Z,16.83
2019-03-23T12:17:20.062Z,17.30
2019-03-23T12:19:47.803Z,16.67
2019-03-23T12:22:15.471Z,16.77
2019-03-23T12:24:43.343Z,15.87
2019-03-23T12:27:11.065Z,16.60
2019-03-23T12:29:38.785Z,15.40
2019-03-23T12:32:06.645Z,15.40
2019-03-23T12:34:34.400Z,15.77
2019-03-23T12:37:02.281Z,15.90
2019-03-23T12:39:30.023Z,29.57
2019-03-23T12:41:57.809Z,36.83
2019-03-23T12:44:25.559Z,34.17
2019-03-23T12:46:53.339Z,23.17
2019-03-23T12:49:21.104Z,20.23
2019-03-23T12:51:48.977Z,18.23
2019-03-23T12:54:16.673Z,20.80
2019-03-23T12:56:44.400Z,19.13
2019-03-23T12:59:12.186Z,19.20
2019-03-23T13:01:40.041Z,20.47
2019-03-23T13:04:07.787Z,21.30
2019-03-23T13:06:35.435Z,19.93
2019-03-23T13:09:04.386Z,22.00
2019-03-23T13:11:35.392Z,19.07
2019-03-23T13:14:01.548Z,20.20
2019-03-23T13:16:29.293Z,20.57
2019-03-23T13:18:57.162Z,21.13
2019-03-23T13:21:25.040Z,22.70
2019-03-23T13:23:52.792Z,20.67
2019-03-23T13:26:20.547Z,17.93
2019-03-23T13:28:48.328Z,19.17
2019-03-23T13:31:16.088Z,16.50
2019-03-23T13:33:43.836Z,15.33
2019-03-23T13:36:11.667Z,15.37
2019-03-23T13:38:39.390Z,15.90
2019-03-23T13:41:07.155Z,19.33
2019-03-23T13:43:34.941Z,17.23
2019-03-23T13:46:02.571Z,15.17
2019-03-23T13:48:30.340Z,14.40
2019-03-23T13:50:58.221Z,14.20
2019-03-23T13:53:26.095Z,12.27
2019-03-23T13:55:53.746Z,14.40
2019-03-23T13:58:21.521Z,15.13
2019-03-23T14:00:49.280Z,13.57
2019-03-23T14:03:16.965Z,14.93
2019-03-23T14:05:44.821Z,16.03
2019-03-23T14:08:12.689Z,14.63
2019-03-23T14:10:40.400Z,14.97
2019-03-23T14:13:08.121Z,16.83
2019-03-23T14:15:35.820Z,15.73
2019-03-23T14:18:03.548Z,17.93
2019-03-23T14:20:31.156Z,22.47
2019-03-23T14:23:02.525Z,16.60
2019-03-23T14:25:28.259Z,16.50
2019-03-23T14:27:56.251Z,16.03
2019-03-23T14:30:24.129Z,15.70
2019-03-23T14:32:51.883Z,17.60
2019-03-23T14:35:19.528Z,18.57
2019-03-23T14:37:47.309Z,17.23
2019-03-23T14:40:15.068Z,15.50
2019-03-23T14:42:42.843Z,17.27
2019-03-23T14:45:10.479Z,15.93
2019-03-23T14:47:38.128Z,17.47
2019-03-23T14:50:06.444Z,15.97
2019-03-23T14:52:34.217Z,14.93
2019-03-23T14:55:02.189Z,16.03
2019-03-23T14:57:30.267Z,15.20
2019-03-23T14:59:59.455Z,18.83
2019-03-23T15:02:27.337Z,15.80
2019-03-23T15:04:55.098Z,14.77
2019-03-23T15:07:22.871Z,14.53
2019-03-23T15:09:50.629Z,14.43
2019-03-23T15:12:18.594Z,13.30
2019-03-23T15:14:46.356Z,12.97
2019-03-23T15:17:14.027Z,13.53
2019-03-23T15:19:41.717Z,17.20
2019-03-23T15:22:09.422Z,15.17
2019-03-23T15:24:37.096Z,15.90
2019-03-23T15:27:05.088Z,14.43
2019-03-23T15:29:32.848Z,14.97
2019-03-23T15:32:00.629Z,13.47
2019-03-23T15:34:28.376Z,13.83
2019-03-23T15:36:56.440Z,15.90
2019-03-23T15:39:24.218Z,15.37
2019-03-23T15:41:51.988Z,15.20
2019-03-23T15:44:19.858Z,13.43
2019-03-23T15:46:47.726Z,14.07
2019-03-23T15:49:15.383Z,13.83
2019-03-23T15:51:43.156Z,14.70
2019-03-23T15:54:10.820Z,13.87
2019-03-23T15:56:38.463Z,14.57
2019-03-23T15:59:06.449Z,13.57
2019-03-23T16:01:34.317Z,15.27
2019-03-23T16:04:02.190Z,14.87
2019-03-23T16:06:30.058Z,14.87
2019-03-23T16:08:57.820Z,14.10
2019-03-23T16:11:25.589Z,13.53
2019-03-23T16:13:53.458Z,15.33
2019-03-23T16:16:21.244Z,14.20
2019-03-23T16:18:49.109Z,16.67
2019-03-23T16:21:16.756Z,15.50
2019-03-23T16:23:44.625Z,14.47
2019-03-23T16:26:12.596Z,14.83
2019-03-23T16:28:40.464Z,15.07
2019-03-23T16:31:08.344Z,20.63
2019-03-23T16:33:36.093Z,19.30
2019-03-23T16:36:03.858Z,15.90
2019-03-23T16:38:31.751Z,16.73
2019-03-23T16:40:59.717Z,16.33
2019-03-23T16:43:27.570Z,13.50
2019-03-23T16:45:55.437Z,14.13
2019-03-23T16:48:23.302Z,12.00
2019-03-23T16:50:50.985Z,12.97
2019-03-23T16:53:18.730Z,11.40
2019-03-23T16:55:46.498Z,11.73
2019-03-23T16:58:16.264Z,11.67
2019-03-23T17:00:43.668Z,11.53
2019-03-23T17:03:11.539Z,13.77
2019-03-23T17:05:39.409Z,12.23
2019-03-23T17:08:07.272Z,13.00
2019-03-23T17:10:35.145Z,14.27
2019-03-23T17:13:02.918Z,11.10
2019-03-23T17:15:30.689Z,12.93
2019-03-23T17:17:58.547Z,12.63
2019-03-23T17:20:26.312Z,13.73
2019-03-23T17:22:54.069Z,15.60
2019-03-23T17:25:21.949Z,13.77
2019-03-23T17:27:49.707Z,13.40
2019-03-23T17:30:17.474Z,16.13
2019-03-23T17:32:46.655Z,16.00
2019-03-23T17:35:14.540Z,15.80
2019-03-23T17:37:42.424Z,14.57
2019-03-23T17:40:10.404Z,15.77
2019-03-23T17:42:38.140Z,14.07
2019-03-23T17:45:07.369Z,14.03
2019-03-23T17:47:35.118Z,12.10
2019-03-23T17:50:02.876Z,13.20
2019-03-23T17:52:30.665Z,13.73
2019-03-23T17:54:58.511Z,15.03
2019-03-23T17:57:26.271Z,14.53
2019-03-23T17:59:53.912Z,16.50
2019-03-23T18:02:21.706Z,16.40
2019-03-23T18:04:49.340Z,19.10
2019-03-23T18:07:17.143Z,17.00
2019-03-23T18:09:44.840Z,19.13
2019-03-23T18:12:12.487Z,19.63
2019-03-23T18:14:40.331Z,18.90
2019-03-23T18:17:08.217Z,20.03
2019-03-23T18:19:35.964Z,20.43
2019-03-23T18:22:03.838Z,19.57
2019-03-23T18:24:31.599Z,19.90
2019-03-23T18:26:59.368Z,17.27
2019-03-23T18:29:27.238Z,17.60
2019-03-23T18:31:55.000Z,33.17
2019-03-23T18:34:22.667Z,25.80
2019-03-23T18:36:50.633Z,30.20
2019-03-23T18:39:18.510Z,30.10
2019-03-23T18:41:46.261Z,19.53
2019-03-23T18:44:16.387Z,14.93
2019-03-23T18:46:43.444Z,13.67
2019-03-23T18:49:11.124Z,13.73
2019-03-23T18:51:38.884Z,13.87
2019-03-23T18:54:06.743Z,15.53
2019-03-23T18:56:34.507Z,14.97
2019-03-23T18:59:02.357Z,13.60
2019-03-23T19:01:30.108Z,15.23
2019-03-23T19:03:57.905Z,13.40
2019-03-23T19:06:25.613Z,14.20
2019-03-23T19:08:53.541Z,15.73
2019-03-23T19:11:21.420Z,16.03
2019-03-23T19:13:49.175Z,16.83
2019-03-23T19:16:16.941Z,22.23
2019-03-23T19:18:44.607Z,18.87
2019-03-23T19:21:12.393Z,25.97
2019-03-23T19:23:40.239Z,18.77
2019-03-23T19:26:08.106Z,21.57
2019-03-23T19:28:35.976Z,23.80
2019-03-23T19:31:03.848Z,23.00
2019-03-23T19:33:31.554Z,21.47
2019-03-23T19:35:59.459Z,17.43
2019-03-23T19:38:27.120Z,15.30
2019-03-23T19:40:54.904Z,14.87
2019-03-23T19:43:22.626Z,17.30
2019-03-23T19:45:50.331Z,17.77
2019-03-23T19:48:17.995Z,15.87
2019-03-23T19:50:45.753Z,19.07
2019-03-23T19:53:13.512Z,20.13
2019-03-23T19:55:41.394Z,21.10
2019-03-23T19:58:09.278Z,17.97
2019-03-23T20:00:36.907Z,22.23
2019-03-23T20:03:04.705Z,22.17
2019-03-23T20:05:32.567Z,23.77
2019-03-23T20:08:00.332Z,19.93
2019-03-23T20:10:28.088Z,19.50
2019-03-23T20:12:55.865Z,17.53
2019-03-23T20:15:23.731Z,17.20
2019-03-23T20:17:51.498Z,18.07
2019-03-23T20:20:20.105Z,19.63
2019-03-23T20:22:48.156Z,20.13
2019-03-23T20:25:15.800Z,19.80
2019-03-23T20:27:43.585Z,21.20
2019-03-23T20:30:12.586Z,23.20
2019-03-23T20:32:40.336Z,22.47
2019-03-23T20:35:08.805Z,21.63
2019-03-23T20:37:36.607Z,24.50
2019-03-23T20:40:05.798Z,25.93
2019-03-23T20:42:33.556Z,28.73
2019-03-23T20:45:01.203Z,31.47
2019-03-23T20:47:28.985Z,29.53
2019-03-23T20:49:56.756Z,28.17
2019-03-23T20:52:24.534Z,30.43
2019-03-23T20:54:52.276Z,28.73
2019-03-23T20:57:24.143Z,29.53
2019-03-23T20:59:49.458Z,26.47
2019-03-23T21:02:17.321Z,29.30
2019-03-23T21:04:44.968Z,33.27
2019-03-23T21:07:12.755Z,25.07
2019-03-23T21:09:40.624Z,30.27
2019-03-23T21:12:08.593Z,30.37
2019-03-23T21:14:36.457Z,30.20
2019-03-23T21:17:04.157Z,33.73
2019-03-23T21:19:31.890Z,32.13
2019-03-23T21:21:59.659Z,29.63
2019-03-23T21:24:27.379Z,30.73
2019-03-23T21:26:55.201Z,31.47
2019-03-23T21:29:23.058Z,36.47
2019-03-23T21:31:50.810Z,36.63
2019-03-23T21:34:18.594Z,36.03
2019-03-23T21:36:46.453Z,36.00
2019-03-23T21:39:14.181Z,37.53
2019-03-23T21:41:42.006Z,37.93
2019-03-23T21:44:09.697Z,36.90
2019-03-23T21:46:37.529Z,37.73
2019-03-23T21:49:05.389Z,40.80
2019-03-23T21:51:33.035Z,38.73
2019-03-23T21:54:00.814Z,39.23
2019-03-23T21:56:28.688Z,40.73
2019-03-23T21:58:56.399Z,48.13
2019-03-23T22:01:24.048Z,53.37
2019-03-23T22:03:51.894Z,60.13
2019-03-23T22:06:19.645Z,59.70
2019-03-23T22:08:47.415Z,56.13
2019-03-23T22:11:15.175Z,54.20
2019-03-23T22:13:42.946Z,57.47
2019-03-23T22:16:10.717Z,77.27
2019-03-23T22:18:38.363Z,77.30
2019-03-23T22:21:06.141Z,181.80
2019-03-23T22:23:33.907Z,98.33
2019-03-23T22:26:01.876Z,46.87
2019-03-23T22:28:29.515Z,50.80
2019-03-23T22:30:57.301Z,49.60
2019-03-23T22:33:25.073Z,51.53
2019-03-23T22:35:52.943Z,51.37
2019-03-23T22:38:20.643Z,47.67
2019-03-23T22:40:48.368Z,44.00
2019-03-23T22:43:16.047Z,43.40
2019-03-23T22:45:43.792Z,39.03
2019-03-23T22:48:11.577Z,37.57
2019-03-23T22:50:39.434Z,37.20
2019-03-23T22:53:07.224Z,37.33
2019-03-23T22:55:34.917Z,36.17
2019-03-23T22:58:02.612Z,36.27
2019-03-23T23:00:43.931Z,36.87
2019-03-23T23:03:11.751Z,37.40
2019-03-23T23:05:39.540Z,37.83
2019-03-23T23:08:07.424Z,35.93
2019-03-23T23:10:35.092Z,39.27
2019-03-23T23:13:02.838Z,40.63
2019-03-23T23:15:30.475Z,39.33
2019-03-23T23:17:58.270Z,37.97
2019-03-23T23:20:26.004Z,37.43
2019-03-23T23:22:53.729Z,37.67
2019-03-23T23:25:21.464Z,38.87
2019-03-23T23:27:49.231Z,37.83
2019-03-23T23:30:17.216Z,37.30
2019-03-23T23:32:44.876Z,38.00
2019-03-23T23:35:12.937Z,38.10
2019-03-23T23:37:40.692Z,38.20
2019-03-23T23:40:08.573Z,37.33
2019-03-23T23:42:36.346Z,36.00
2019-03-23T23:45:15.267Z,38.17
2019-03-23T23:47:36.888Z,39.23
2019-03-23T23:50:06.091Z,38.50
2019-03-23T23:52:33.853Z,40.47
2019-03-23T23:55:01.623Z,39.90
2019-03-23T23:57:29.396Z,40.70
2019-03-23T23:59:57.269Z,41.90
